Time;durP1;ratioP1;P1;durP2;ratioP2;P2;SDS_P1;SDS_P2;PMS_P1;PMS_P2;Temp;Humidity;BMP_temperature;BMP_pressure;BME280_temperature;BME280_humidity;BME280_pressure;Samples;Min_cycle;Max_cycle;Signal;HPM_P1;HPM_P2
2023/03/01 00:01:48;;;;;;;18.50;11.43;;;0.50;69.20;;;;;;4996410;28;20259;-83
2023/03/01 00:04:14;;;;;;;15.02;12.10;;;0.50;69.50;;;;;;5005639;28;20525;-83
2023/03/01 00:06:41;;;;;;;17.52;11.27;;;0.50;69.70;;;;;;5001754;28;20096;-84
2023/03/01 00:09:07;;;;;;;15.75;11.38;;;0.50;70.10;;;;;;4996583;28;20031;-83
2023/03/01 00:11:33;;;;;;;14.20;11.60;;;0.50;70.30;;;;;;5001898;28;20033;-83
2023/03/01 00:14:00;;;;;;;15.73;11.80;;;0.50;70.60;;;;;;4998033;28;20022;-82
2023/03/01 00:16:33;;;;;;;16.52;12.52;;;0.60;70.70;;;;;;5001085;28;20034;-83
2023/03/01 00:18:59;;;;;;;16.10;12.73;;;0.50;71.10;;;;;;5001113;28;20034;-83
2023/03/01 00:21:26;;;;;;;19.17;12.73;;;0.50;71.20;;;;;;4995676;28;20110;-83
2023/03/01 00:23:53;;;;;;;15.13;10.73;;;0.50;71.60;;;;;;4999829;28;20037;-83
2023/03/01 00:26:19;;;;;;;14.30;10.93;;;0.50;71.90;;;;;;5002041;28;20034;-81
2023/03/01 00:28:46;;;;;;;14.10;10.93;;;0.60;72.00;;;;;;5005307;28;20037;-81
2023/03/01 00:31:14;;;;;;;15.07;10.90;;;0.60;72.10;;;;;;5001233;28;20053;-82
2023/03/01 00:33:40;;;;;;;14.95;11.45;;;0.60;72.20;;;;;;5005857;28;20041;-82
2023/03/01 00:36:07;;;;;;;17.23;11.35;;;0.60;72.30;;;;;;5007315;28;20519;-83
2023/03/01 00:38:37;;;;;;;15.70;10.95;;;0.60;72.50;;;;;;5000410;28;20034;-82
2023/03/01 00:41:06;;;;;;;15.70;11.18;;;0.50;72.50;;;;;;5007470;28;20060;-82
2023/03/01 00:43:36;;;;;;;15.63;11.25;;;0.60;72.80;;;;;;5003468;28;20345;-81
2023/03/01 00:46:06;;;;;;;15.10;10.85;;;0.50;73.00;;;;;;5005320;28;20056;-82
2023/03/01 00:48:33;;;;;;;17.23;11.98;;;0.50;73.30;;;;;;5004829;28;20026;-83
2023/03/01 00:51:08;;;;;;;16.70;11.82;;;0.50;73.70;;;;;;5002833;28;20031;-82
2023/03/01 00:53:35;;;;;;;15.15;10.98;;;0.50;74.10;;;;;;5018613;28;20021;-81
2023/03/01 00:56:01;;;;;;;20.95;12.77;;;0.50;74.30;;;;;;4999487;28;20038;-84
2023/03/01 00:58:27;;;;;;;15.48;11.68;;;0.50;74.70;;;;;;5003009;28;20026;-84
2023/03/01 01:00:52;;;;;;;16.45;11.80;;;0.50;75.10;;;;;;5001416;28;20034;-83
2023/03/01 01:03:19;;;;;;;14.40;11.35;;;0.50;75.30;;;;;;5004906;28;20037;-80
2023/03/01 01:05:44;;;;;;;17.70;12.25;;;0.50;75.60;;;;;;4999746;28;20575;-81
2023/03/01 01:08:10;;;;;;;15.25;11.90;;;0.50;75.90;;;;;;4998770;28;20038;-83
2023/03/01 01:10:36;;;;;;;15.68;11.23;;;0.50;76.10;;;;;;5000927;28;20561;-82
2023/03/01 01:13:02;;;;;;;15.50;11.88;;;0.40;76.30;;;;;;5002562;28;20029;-82
2023/03/01 01:15:28;;;;;;;18.05;13.07;;;0.40;76.60;;;;;;4999100;28;20022;-83
2023/03/01 01:17:54;;;;;;;17.77;12.65;;;0.40;76.80;;;;;;5003469;28;20140;-84
2023/03/01 01:20:20;;;;;;;16.75;12.07;;;0.40;76.90;;;;;;5003001;28;20725;-82
2023/03/01 01:22:46;;;;;;;16.30;11.90;;;0.40;77.20;;;;;;5004345;28;20127;-81
2023/03/01 01:25:12;;;;;;;17.35;12.43;;;0.40;77.30;;;;;;5005104;28;20058;-80
2023/03/01 01:27:37;;;;;;;18.83;12.52;;;0.30;77.50;;;;;;5007830;28;20121;-81
2023/03/01 01:30:04;;;;;;;17.08;12.25;;;0.40;77.70;;;;;;4998798;28;20027;-80
2023/03/01 01:32:29;;;;;;;17.63;13.35;;;0.40;77.80;;;;;;5003059;28;20092;-82
2023/03/01 01:34:55;;;;;;;15.63;12.48;;;0.40;78.20;;;;;;5008280;28;20030;-79
2023/03/01 01:37:21;;;;;;;18.10;13.35;;;0.30;78.30;;;;;;5000281;28;20457;-82
2023/03/01 01:39:47;;;;;;;18.02;13.43;;;0.30;78.60;;;;;;5008059;28;20598;-80
2023/03/01 01:42:16;;;;;;;17.73;12.80;;;0.40;78.70;;;;;;5003268;28;20038;-84
2023/03/01 01:44:47;;;;;;;18.95;13.93;;;0.40;78.90;;;;;;5003016;28;20080;-83
2023/03/01 01:47:17;;;;;;;19.40;14.07;;;0.30;79.70;;;;;;5011939;28;20041;-83
2023/03/01 01:49:55;;;;;;;19.75;13.52;;;0.30;79.90;;;;;;4996620;28;20786;-83
2023/03/01 01:52:34;;;;;;;19.92;15.02;;;0.30;80.20;;;;;;5025138;28;20065;-81
2023/03/01 01:55:07;;;;;;;21.10;14.73;;;0.30;80.70;;;;;;5025529;28;20040;-79
2023/03/01 01:57:40;;;;;;;17.70;13.48;;;0.30;80.70;;;;;;5028503;28;20056;-79
2023/03/01 02:00:15;;;;;;;19.20;15.02;;;0.40;81.00;;;;;;5017829;28;20022;-83
2023/03/01 02:02:42;;;;;;;21.23;13.93;;;0.30;81.10;;;;;;4985732;28;20228;-84
2023/03/01 02:05:28;;;;;;;20.48;14.88;;;0.30;81.20;;;;;;4989892;28;20364;-83
2023/03/01 02:07:54;;;;;;;21.88;15.88;;;0.30;81.20;;;;;;4994970;28;20050;-83
2023/03/01 02:10:22;;;;;;;23.48;15.80;;;0.30;81.70;;;;;;5001635;28;20479;-83
2023/03/01 02:12:48;;;;;;;20.67;15.48;;;0.20;81.80;;;;;;5003239;28;20052;-82
2023/03/01 02:15:13;;;;;;;21.33;15.63;;;0.30;81.80;;;;;;5004393;28;20492;-83
2023/03/01 02:17:40;;;;;;;23.23;16.27;;;0.20;81.90;;;;;;5001592;28;20038;-84
2023/03/01 02:20:45;;;;;;;22.65;16.77;;;0.20;82.40;;;;;;5001131;28;20029;-82
2023/03/01 02:23:11;;;;;;;21.08;16.73;;;0.20;82.50;;;;;;4998621;28;20533;-81
2023/03/01 02:26:00;;;;;;;26.30;17.20;;;0.10;82.50;;;;;;5003521;28;20050;-83
2023/03/01 02:28:33;;;;;;;22.00;16.30;;;0.20;82.50;;;;;;4998774;28;20041;-83
2023/03/01 02:33:45;;;;;;;23.85;17.70;;;0.10;82.70;;;;;;4996290;28;20030;-83
2023/03/01 02:36:15;;;;;;;24.83;18.33;;;0.10;82.90;;;;;;4997391;28;20034;-84
2023/03/01 02:38:41;;;;;;;24.45;18.00;;;0.10;83.00;;;;;;5002219;28;20039;-83
2023/03/01 02:41:11;;;;;;;25.13;18.42;;;0.10;83.20;;;;;;4999101;28;20082;-84
2023/03/01 02:43:37;;;;;;;26.30;17.75;;;0.00;83.50;;;;;;4999241;28;20034;-83
2023/03/01 02:46:07;;;;;;;24.90;18.67;;;0.10;83.60;;;;;;5000498;28;20034;-82
2023/03/01 02:48:56;;;;;;;28.38;21.15;;;0.00;83.70;;;;;;4999279;28;20100;-82
2023/03/01 02:51:52;;;;;;;29.05;19.35;;;0.00;83.90;;;;;;5010995;28;20034;-83
2023/03/01 02:54:22;;;;;;;29.27;20.45;;;0.00;84.10;;;;;;4995787;28;20081;-81
2023/03/01 02:56:49;;;;;;;26.70;20.48;;;0.00;84.30;;;;;;4999449;28;20435;-81
2023/03/01 02:59:17;;;;;;;28.30;20.50;;;0.00;84.40;;;;;;4994827;28;20030;-83
2023/03/01 03:01:43;;;;;;;30.42;21.42;;;0.00;84.50;;;;;;5000868;28;20076;-83
2023/03/01 03:04:16;;;;;;;28.98;20.90;;;0.00;84.70;;;;;;4990813;28;20053;-83
2023/03/01 03:06:44;;;;;;;30.25;21.50;;;0.00;84.80;;;;;;4997333;28;20046;-83
2023/03/01 03:09:10;;;;;;;29.75;21.40;;;0.00;84.90;;;;;;5002717;28;20026;-83
2023/03/01 03:11:36;;;;;;;28.90;20.85;;;0.00;85.00;;;;;;5001440;28;20114;-84
2023/03/01 03:14:02;;;;;;;30.50;21.42;;;0.00;85.00;;;;;;5004790;28;20022;-82
2023/03/01 03:16:29;;;;;;;27.73;21.05;;;-3276.70;85.10;;;;;;5002256;28;20037;-83
2023/03/01 03:19:04;;;;;;;31.30;22.60;;;-3276.70;85.10;;;;;;5001153;28;20118;-84
2023/03/01 03:21:31;;;;;;;30.40;22.40;;;-3276.70;85.30;;;;;;4991366;28;20149;-83
2023/03/01 03:23:57;;;;;;;31.45;22.58;;;-3276.70;85.50;;;;;;5000971;28;20014;-84
2023/03/01 03:26:23;;;;;;;32.33;23.63;;;-3276.70;85.60;;;;;;5002730;28;20040;-83
2023/03/01 03:28:49;;;;;;;31.70;23.33;;;-3276.70;86.00;;;;;;5003668;28;20090;-84
2023/03/01 03:31:14;;;;;;;33.03;24.60;;;0.00;86.00;;;;;;5005445;28;20060;-83
2023/03/01 03:33:40;;;;;;;32.70;24.73;;;0.00;86.00;;;;;;5000014;28;20566;-84
2023/03/01 03:36:06;;;;;;;32.05;23.63;;;0.00;86.10;;;;;;5000020;28;20042;-84
2023/03/01 03:38:32;;;;;;;36.50;24.33;;;0.00;86.30;;;;;;5000037;28;20266;-84
2023/03/01 03:41:03;;;;;;;35.80;25.55;;;0.00;86.40;;;;;;5005919;28;20039;-84
2023/03/01 03:43:31;;;;;;;36.30;24.98;;;0.00;86.50;;;;;;5003314;28;20034;-83
2023/03/01 03:45:57;;;;;;;38.53;26.52;;;0.00;86.50;;;;;;5003808;28;20037;-84
2023/03/01 03:48:24;;;;;;;36.13;26.05;;;0.00;86.50;;;;;;5003421;28;20066;-82
2023/03/01 03:50:51;;;;;;;40.47;27.55;;;-3276.70;86.70;;;;;;5003240;28;20034;-83
2023/03/01 03:53:19;;;;;;;38.75;27.45;;;-3276.70;86.80;;;;;;5005992;28;20022;-83
2023/03/01 03:55:45;;;;;;;37.10;27.30;;;0.00;87.10;;;;;;5008780;28;20045;-82
2023/03/01 03:58:11;;;;;;;37.80;27.67;;;0.00;87.20;;;;;;5007033;28;20045;-84
2023/03/01 04:00:40;;;;;;;41.58;28.88;;;0.00;87.30;;;;;;5009754;28;20072;-84
2023/03/01 04:03:06;;;;;;;39.38;28.42;;;-3276.70;87.30;;;;;;5016533;28;20443;-80
2023/03/01 04:05:32;;;;;;;44.17;27.77;;;-3276.70;87.20;;;;;;5008255;28;20022;-84
2023/03/01 04:08:01;;;;;;;42.95;28.88;;;0.00;87.30;;;;;;5001418;28;20034;-85
2023/03/01 04:10:32;;;;;;;39.28;28.50;;;0.00;87.30;;;;;;5004662;28;20068;-83
2023/03/01 04:12:58;;;;;;;38.17;27.70;;;-3276.70;87.30;;;;;;5019196;28;20054;-83
2023/03/01 04:15:25;;;;;;;39.47;28.13;;;-3276.70;87.30;;;;;;5001620;28;20087;-85
2023/03/01 04:17:52;;;;;;;40.63;27.65;;;0.00;87.50;;;;;;5004818;28;20046;-84
2023/03/01 04:20:24;;;;;;;38.88;27.73;;;0.00;87.50;;;;;;5007113;28;20048;-81
2023/03/01 04:22:52;;;;;;;37.83;26.65;;;0.00;87.50;;;;;;5019324;28;20066;-83
2023/03/01 04:25:18;;;;;;;40.08;29.05;;;0.00;87.40;;;;;;5002385;28;20038;-83
2023/03/01 04:27:44;;;;;;;41.22;27.60;;;0.00;87.40;;;;;;5003281;28;20030;-85
2023/03/01 04:30:10;;;;;;;40.80;27.90;;;0.00;87.30;;;;;;5001556;28;20053;-82
2023/03/01 04:32:36;;;;;;;42.05;27.02;;;0.00;87.10;;;;;;5007495;28;20117;-82
2023/03/01 04:35:01;;;;;;;39.80;28.20;;;0.00;87.00;;;;;;5009152;28;20356;-85
2023/03/01 04:37:27;;;;;;;39.22;27.42;;;-3276.70;86.80;;;;;;5002793;28;20034;-85
2023/03/01 04:39:53;;;;;;;38.03;27.38;;;-3276.70;86.80;;;;;;5007325;28;20029;-83
2023/03/01 04:42:19;;;;;;;39.03;27.10;;;-3276.60;86.90;;;;;;5021716;28;20037;-81
2023/03/01 04:44:45;;;;;;;40.58;28.67;;;-3276.60;86.90;;;;;;5008491;28;20173;-83
2023/03/01 04:47:12;;;;;;;38.92;26.20;;;-3276.60;86.90;;;;;;5004562;28;20038;-85
2023/03/01 04:49:38;;;;;;;39.67;26.40;;;-3276.50;86.90;;;;;;4999576;28;20040;-83
2023/03/01 04:52:04;;;;;;;39.28;26.80;;;-3276.50;86.90;;;;;;4991216;28;20034;-84
2023/03/01 04:54:32;;;;;;;39.30;26.45;;;-3276.50;86.90;;;;;;4985921;28;20050;-84
2023/03/01 04:56:58;;;;;;;38.90;27.38;;;-3276.50;87.00;;;;;;5015703;28;20066;-82
2023/03/01 04:59:24;;;;;;;37.13;28.10;;;-3276.50;87.00;;;;;;5016948;28;20030;-84
2023/03/01 05:01:51;;;;;;;39.38;27.20;;;-3276.50;87.00;;;;;;4999502;28;20039;-85
2023/03/01 05:04:17;;;;;;;39.90;28.40;;;-3276.40;87.10;;;;;;4987111;28;20030;-85
2023/03/01 05:06:43;;;;;;;37.55;26.15;;;-3276.50;87.20;;;;;;4996715;28;20034;-84
2023/03/01 05:09:09;;;;;;;39.72;27.85;;;-3276.50;87.20;;;;;;5003763;28;20030;-82
2023/03/01 05:11:35;;;;;;;42.42;27.90;;;-3276.40;87.00;;;;;;5009601;28;20113;-80
2023/03/01 05:14:11;;;;;;;38.00;26.48;;;-3276.40;87.00;;;;;;4996350;28;20398;-84
2023/03/01 05:16:37;;;;;;;39.33;26.50;;;-3276.40;87.00;;;;;;5005141;28;20050;-85
2023/03/01 05:19:11;;;;;;;40.17;27.27;;;-3276.40;87.10;;;;;;5008871;28;20037;-83
2023/03/01 05:22:01;;;;;;;37.83;27.20;;;-3276.40;87.20;;;;;;5003121;28;20046;-83
2023/03/01 05:24:26;;;;;;;36.60;26.02;;;-3276.40;87.10;;;;;;5008542;28;20496;-83
2023/03/01 05:26:52;;;;;;;37.30;26.17;;;-3276.40;87.10;;;;;;5006968;28;20030;-84
2023/03/01 05:29:26;;;;;;;40.17;27.27;;;-3276.40;87.20;;;;;;5000714;28;20502;-83
2023/03/01 05:32:02;;;;;;;38.67;27.13;;;-3276.40;87.30;;;;;;5001731;28;20048;-83
2023/03/01 05:34:30;;;;;;;36.17;23.85;;;-3276.40;87.20;;;;;;5006952;28;20030;-85
2023/03/01 05:36:56;;;;;;;36.13;25.65;;;-3276.40;87.10;;;;;;5009887;28;20042;-81
2023/03/01 05:39:24;;;;;;;36.67;25.50;;;-3276.40;86.90;;;;;;5008042;28;20046;-84
2023/03/01 05:41:55;;;;;;;37.00;24.60;;;-3276.30;86.90;;;;;;5001695;28;20387;-85
2023/03/01 05:44:21;;;;;;;34.65;24.85;;;-3276.30;87.00;;;;;;5015385;28;20061;-84
2023/03/01 05:46:47;;;;;;;35.65;24.60;;;-3276.30;86.90;;;;;;4996583;28;20061;-84
2023/03/01 05:49:13;;;;;;;37.33;24.73;;;-3276.30;87.00;;;;;;4995721;28;20834;-83
2023/03/01 05:51:41;;;;;;;33.83;23.58;;;-3276.30;86.80;;;;;;4997030;28;20484;-85
2023/03/01 05:54:07;;;;;;;37.00;25.40;;;-3276.30;86.80;;;;;;4999420;28;20053;-83
2023/03/01 05:56:34;;;;;;;35.70;25.38;;;-3276.30;86.70;;;;;;5000031;28;20069;-82
2023/03/01 05:59:00;;;;;;;37.33;24.65;;;-3276.30;86.70;;;;;;4994716;28;20025;-83
2023/03/01 06:01:26;;;;;;;36.08;24.88;;;-3276.30;86.60;;;;;;5002088;28;20061;-84
2023/03/01 06:03:52;;;;;;;32.97;23.83;;;-3276.20;86.60;;;;;;5003262;28;20084;-83
2023/03/01 06:06:18;;;;;;;39.15;25.30;;;-3276.30;86.60;;;;;;4998900;28;20038;-84
2023/03/01 06:08:43;;;;;;;33.60;24.38;;;-3276.20;86.70;;;;;;5000254;28;20037;-83
2023/03/01 06:11:09;;;;;;;34.70;23.92;;;-3276.20;86.50;;;;;;4997220;28;20030;-84
2023/03/01 06:13:35;;;;;;;34.10;24.92;;;-3276.20;86.70;;;;;;5005815;28;20027;-80
2023/03/01 06:16:00;;;;;;;33.67;23.85;;;-3276.20;86.70;;;;;;5006942;28;20048;-86
2023/03/01 06:18:26;;;;;;;38.25;25.75;;;-3276.10;86.60;;;;;;5011335;28;20057;-87
2023/03/01 06:20:55;;;;;;;36.60;25.40;;;-3276.20;86.60;;;;;;5002104;28;20489;-85
2023/03/01 06:23:22;;;;;;;37.00;25.08;;;-3276.10;86.50;;;;;;5003255;28;20057;-80
2023/03/01 06:25:48;;;;;;;35.55;26.13;;;-3276.10;86.60;;;;;;5000139;28;20038;-84
2023/03/01 06:28:14;;;;;;;35.90;24.77;;;-3276.10;86.70;;;;;;5000069;28;20034;-83
2023/03/01 06:30:39;;;;;;;38.92;25.42;;;-3276.10;86.80;;;;;;5003202;28;20022;-85
2023/03/01 06:33:05;;;;;;;34.85;24.35;;;-3276.10;86.80;;;;;;5004378;28;20026;-85
2023/03/01 06:35:31;;;;;;;36.10;24.92;;;-3276.20;86.80;;;;;;5005610;28;20046;-83
2023/03/01 06:37:59;;;;;;;38.80;25.60;;;-3276.10;86.60;;;;;;5002958;28;20093;-79
2023/03/01 06:40:25;;;;;;;37.83;24.80;;;-3276.10;86.50;;;;;;4995148;28;20112;-77
2023/03/01 06:42:51;;;;;;;40.17;25.50;;;-3276.20;86.50;;;;;;4992345;28;20141;-77
2023/03/01 06:45:18;;;;;;;33.50;24.02;;;-3276.20;86.50;;;;;;4997213;28;20451;-76
2023/03/01 06:47:44;;;;;;;33.13;23.48;;;-3276.20;86.30;;;;;;5001835;28;20046;-76
2023/03/01 06:50:10;;;;;;;35.20;24.83;;;-3276.20;86.10;;;;;;4997260;28;20113;-76
2023/03/01 06:52:36;;;;;;;38.22;25.25;;;-3276.20;86.00;;;;;;4996504;28;20061;-76
2023/03/01 06:55:03;;;;;;;36.47;23.92;;;-3276.20;86.00;;;;;;4998166;28;20488;-77
2023/03/01 06:57:28;;;;;;;38.55;25.65;;;-3276.30;86.00;;;;;;5002191;28;20053;-76
2023/03/01 06:59:54;;;;;;;34.05;24.50;;;-3276.30;86.00;;;;;;5002995;28;20068;-77
2023/03/01 07:02:20;;;;;;;35.53;24.55;;;-3276.30;86.00;;;;;;4997546;28;20679;-77
2023/03/01 07:04:46;;;;;;;36.40;24.38;;;-3276.30;85.90;;;;;;5000214;28;20030;-75
2023/03/01 07:07:11;;;;;;;35.20;23.63;;;-3276.30;85.90;;;;;;5000986;28;20483;-76
2023/03/01 07:09:37;;;;;;;35.80;24.02;;;-3276.30;85.80;;;;;;4997439;28;20030;-76
2023/03/01 07:12:03;;;;;;;33.97;24.40;;;-3276.40;85.70;;;;;;4993816;28;20034;-75
2023/03/01 07:14:29;;;;;;;37.60;26.77;;;-3276.40;85.80;;;;;;4997555;28;20030;-77
2023/03/01 07:16:55;;;;;;;32.60;23.75;;;-3276.40;85.60;;;;;;5000027;28;20118;-76
2023/03/01 07:19:21;;;;;;;34.20;22.70;;;-3276.50;85.50;;;;;;5004349;28;20052;-76
2023/03/01 07:21:47;;;;;;;32.90;23.08;;;-3276.50;85.30;;;;;;4991600;28;20050;-76
2023/03/01 07:24:13;;;;;;;35.35;24.30;;;-3276.50;85.20;;;;;;4994441;28;20364;-76
2023/03/01 07:26:39;;;;;;;32.15;22.65;;;-3276.60;85.10;;;;;;4996700;28;20029;-75
2023/03/01 07:29:06;;;;;;;36.47;22.92;;;-3276.70;85.00;;;;;;4990547;28;20064;-76
2023/03/01 07:31:32;;;;;;;33.53;22.52;;;-3276.70;84.90;;;;;;4993139;28;20037;-77
2023/03/01 07:33:57;;;;;;;31.92;22.90;;;-3276.70;84.60;;;;;;4997411;28;20048;-79
2023/03/01 07:36:24;;;;;;;33.72;21.98;;;0.00;84.50;;;;;;4996739;28;20367;-78
2023/03/01 07:38:50;;;;;;;33.17;23.83;;;0.00;84.30;;;;;;5007340;28;20030;-77
2023/03/01 07:41:18;;;;;;;35.83;22.50;;;0.00;84.10;;;;;;5002686;28;20033;-77
2023/03/01 07:43:43;;;;;;;34.97;24.02;;;0.10;84.00;;;;;;4999727;28;20105;-76
2023/03/01 07:46:09;;;;;;;36.15;26.20;;;0.10;83.80;;;;;;5004590;28;20118;-76
2023/03/01 07:48:35;;;;;;;32.75;22.88;;;0.20;83.50;;;;;;4995672;28;20034;-75
2023/03/01 07:51:02;;;;;;;31.30;22.42;;;0.20;83.40;;;;;;4995577;28;20034;-75
2023/03/01 07:53:28;;;;;;;29.23;21.73;;;0.30;83.10;;;;;;4991036;28;20034;-76
2023/03/01 07:56:02;;;;;;;32.78;22.85;;;0.40;82.80;;;;;;4990179;28;20888;-76
2023/03/01 07:58:28;;;;;;;33.70;20.17;;;0.50;82.10;;;;;;5006901;28;20053;-75
2023/03/01 08:00:54;;;;;;;28.60;20.38;;;0.50;81.90;;;;;;4993320;28;20243;-78
2023/03/01 08:03:19;;;;;;;32.72;21.25;;;0.60;81.70;;;;;;4994694;28;20492;-76
2023/03/01 08:05:45;;;;;;;29.98;21.60;;;0.70;81.30;;;;;;4992629;28;21192;-77
2023/03/01 08:08:11;;;;;;;31.27;20.63;;;0.70;81.20;;;;;;4992984;28;20083;-76
2023/03/01 08:10:37;;;;;;;31.13;22.65;;;0.80;81.30;;;;;;4993382;28;20489;-77
2023/03/01 08:13:02;;;;;;;31.25;21.58;;;0.90;81.20;;;;;;4993196;28;20099;-77
2023/03/01 08:15:28;;;;;;;32.50;21.67;;;1.00;81.00;;;;;;4990160;28;20034;-77
2023/03/01 08:17:53;;;;;;;29.63;20.90;;;1.10;80.80;;;;;;5018296;28;20034;-76
2023/03/01 08:20:19;;;;;;;32.90;22.17;;;1.10;80.40;;;;;;5005280;28;20034;-74
2023/03/01 08:22:45;;;;;;;30.08;22.67;;;1.20;79.70;;;;;;4999097;28;20030;-74
2023/03/01 08:25:11;;;;;;;30.95;23.50;;;1.40;79.40;;;;;;5001351;28;20490;-76
2023/03/01 08:27:36;;;;;;;28.52;19.92;;;1.50;79.20;;;;;;5001613;28;20026;-75
2023/03/01 08:30:02;;;;;;;34.10;21.98;;;1.60;78.80;;;;;;4999530;28;20033;-76
2023/03/01 08:32:28;;;;;;;30.83;22.17;;;1.80;78.50;;;;;;5002345;28;20053;-75
2023/03/01 08:34:54;;;;;;;28.40;20.73;;;1.90;78.00;;;;;;4991239;28;20991;-76
2023/03/01 08:37:19;;;;;;;28.65;18.80;;;2.00;77.70;;;;;;4995132;28;20168;-77
2023/03/01 08:39:46;;;;;;;30.63;21.05;;;2.20;77.00;;;;;;4991724;28;20438;-78
2023/03/01 08:42:11;;;;;;;30.40;20.00;;;2.40;76.50;;;;;;4994510;28;20156;-78
2023/03/01 08:44:37;;;;;;;28.17;18.95;;;2.60;75.30;;;;;;5008642;28;20466;-78
2023/03/01 08:47:04;;;;;;;23.52;16.98;;;2.80;74.30;;;;;;5000220;28;20451;-77
2023/03/01 08:49:32;;;;;;;26.00;16.88;;;2.90;72.40;;;;;;4992448;28;20149;-77
2023/03/01 08:51:58;;;;;;;22.67;16.40;;;3.00;71.10;;;;;;5003558;28;20034;-78
2023/03/01 08:54:23;;;;;;;22.17;15.52;;;3.10;70.70;;;;;;4993537;28;20018;-78
2023/03/01 08:56:50;;;;;;;22.92;15.30;;;3.10;68.80;;;;;;5005139;28;20616;-77
2023/03/01 08:59:18;;;;;;;22.67;14.63;;;3.30;69.80;;;;;;4991868;28;20029;-78
2023/03/01 09:01:44;;;;;;;20.02;14.98;;;3.40;68.40;;;;;;4994235;28;20324;-78
2023/03/01 09:04:10;;;;;;;19.30;14.15;;;3.60;68.50;;;;;;5003070;28;20014;-76
2023/03/01 09:06:36;;;;;;;19.65;13.43;;;3.60;67.50;;;;;;4999846;28;20034;-77
2023/03/01 09:09:04;;;;;;;20.25;13.27;;;3.60;66.30;;;;;;5003727;28;20026;-77
2023/03/01 09:11:30;;;;;;;15.63;12.38;;;3.80;66.50;;;;;;4987802;28;20483;-78
2023/03/01 09:13:56;;;;;;;18.73;11.65;;;4.00;65.80;;;;;;4987639;28;20030;-77
2023/03/01 09:16:22;;;;;;;17.17;11.93;;;4.20;64.20;;;;;;4991908;28;20489;-76
2023/03/01 09:18:54;;;;;;;17.08;12.35;;;4.40;63.20;;;;;;4998616;28;20140;-76
2023/03/01 09:21:22;;;;;;;17.00;11.88;;;4.30;61.40;;;;;;4991771;28;20045;-77
2023/03/01 09:23:48;;;;;;;16.63;10.95;;;4.30;60.30;;;;;;4997717;28;20091;-76
2023/03/01 09:26:21;;;;;;;16.83;11.60;;;4.30;59.80;;;;;;4998721;28;20042;-75
2023/03/01 09:28:47;;;;;;;17.52;12.23;;;4.40;60.00;;;;;;5000273;28;20414;-76
2023/03/01 09:31:14;;;;;;;17.98;11.40;;;4.60;59.60;;;;;;4996113;28;20150;-76
2023/03/01 09:33:40;;;;;;;15.00;12.18;;;4.60;59.50;;;;;;5000335;28;20033;-77
2023/03/01 09:36:12;;;;;;;18.58;11.70;;;4.70;59.50;;;;;;4996476;28;20573;-76
2023/03/01 09:38:38;;;;;;;16.33;10.98;;;4.90;59.00;;;;;;4997217;28;20033;-76
2023/03/01 09:41:30;;;;;;;16.02;10.98;;;4.80;58.10;;;;;;4995400;28;20136;-76
2023/03/01 09:44:28;;;;;;;17.00;12.07;;;4.80;57.40;;;;;;4992886;28;20042;-76
2023/03/01 09:46:56;;;;;;;18.15;11.75;;;4.70;57.30;;;;;;4998251;28;20467;-76
2023/03/01 09:49:28;;;;;;;15.70;10.48;;;4.70;57.10;;;;;;4998264;28;20121;-76
2023/03/01 09:52:14;;;;;;;16.13;10.98;;;4.90;57.10;;;;;;4994180;28;20042;-76
2023/03/01 09:54:40;;;;;;;16.88;10.90;;;4.80;56.60;;;;;;4999572;28;20040;-76
2023/03/01 09:57:37;;;;;;;17.50;10.57;;;5.00;56.60;;;;;;4991674;28;20471;-76
2023/03/01 10:00:42;;;;;;;15.13;10.18;;;5.30;55.60;;;;;;4990431;28;20065;-77
2023/03/01 10:03:27;;;;;;;16.05;10.38;;;5.00;54.70;;;;;;4999597;28;20034;-76
2023/03/01 10:06:10;;;;;;;16.17;11.07;;;5.10;55.00;;;;;;5003276;28;20067;-76
2023/03/01 10:08:46;;;;;;;15.57;10.85;;;5.10;54.50;;;;;;4999360;28;20496;-77
2023/03/01 10:11:29;;;;;;;16.35;11.05;;;5.40;54.60;;;;;;5003438;28;20050;-76
2023/03/01 10:14:33;;;;;;;16.80;11.50;;;5.50;53.30;;;;;;5001594;28;20030;-75
2023/03/01 10:17:12;;;;;;;14.85;10.95;;;5.40;54.00;;;;;;5000676;28;20033;-75
2023/03/01 10:19:46;;;;;;;16.05;10.45;;;5.40;53.50;;;;;;5000283;28;20526;-75
2023/03/01 10:22:14;;;;;;;16.23;10.95;;;5.50;54.50;;;;;;5000068;28;20096;-75
2023/03/01 10:24:40;;;;;;;14.93;10.60;;;5.20;54.40;;;;;;5002956;28;20037;-75
2023/03/01 10:27:23;;;;;;;16.67;11.05;;;5.10;54.80;;;;;;4999487;28;20089;-75
2023/03/01 10:30:15;;;;;;;16.25;11.88;;;5.30;55.00;;;;;;5003223;28;20034;-75
2023/03/01 10:32:42;;;;;;;16.05;11.57;;;5.50;55.20;;;;;;4999374;28;20125;-75
2023/03/01 10:35:34;;;;;;;16.45;10.98;;;5.60;53.80;;;;;;4999156;28;20017;-75
2023/03/01 10:38:11;;;;;;;16.88;11.63;;;5.40;55.00;;;;;;4993145;28;20034;-75
2023/03/01 10:40:54;;;;;;;17.90;12.00;;;5.30;55.00;;;;;;4995991;28;20518;-75
2023/03/01 10:43:21;;;;;;;15.23;11.00;;;5.30;54.30;;;;;;5000561;28;20030;-75
2023/03/01 10:45:47;;;;;;;15.52;11.35;;;5.20;55.30;;;;;;5002358;28;20025;-76
2023/03/01 10:48:20;;;;;;;18.42;11.63;;;5.50;54.90;;;;;;4998538;28;20042;-76
2023/03/01 10:50:50;;;;;;;18.08;11.15;;;5.70;54.40;;;;;;4998615;28;20698;-75
2023/03/01 10:53:32;;;;;;;16.83;10.88;;;5.70;53.50;;;;;;4998301;28;20044;-77
2023/03/01 10:56:16;;;;;;;17.55;11.55;;;5.80;53.80;;;;;;4993013;28;20050;-78
2023/03/01 10:58:56;;;;;;;16.15;11.25;;;5.60;53.40;;;;;;4990973;28;20034;-76
2023/03/01 11:01:27;;;;;;;19.15;10.57;;;5.60;53.30;;;;;;5000156;28;20053;-77
2023/03/01 11:04:07;;;;;;;17.23;11.65;;;5.60;53.90;;;;;;5002980;28;20523;-77
2023/03/01 11:06:35;;;;;;;16.10;10.80;;;5.60;54.00;;;;;;5000989;28;20034;-77
2023/03/01 11:09:20;;;;;;;15.45;11.02;;;5.50;53.90;;;;;;4998707;28;20021;-76
2023/03/01 11:11:46;;;;;;;;;;;5.60;53.70;;;;;;5001273;28;20129;-77
2023/03/01 11:14:22;;;;;;;13.82;10.35;;;5.70;52.90;;;;;;4998884;28;20000;-77
2023/03/01 11:16:57;;;;;;;18.38;11.23;;;5.80;52.90;;;;;;4997132;28;20039;-76
2023/03/01 11:19:23;;;;;;;15.50;10.02;;;5.90;52.10;;;;;;5001349;28;20057;-76
2023/03/01 11:22:12;;;;;;;14.75;9.75;;;6.10;51.50;;;;;;4997709;28;20115;-77
2023/03/01 11:24:47;;;;;;;16.17;10.60;;;6.00;51.60;;;;;;4999292;28;20418;-78
2023/03/01 11:27:19;;;;;;;13.38;9.98;;;6.10;51.10;;;;;;4994244;28;20073;-77
2023/03/01 11:29:50;;;;;;;14.27;9.30;;;6.00;50.00;;;;;;5001005;28;20382;-78
2023/03/01 11:32:19;;;;;;;15.35;9.65;;;6.20;49.60;;;;;;4995426;28;20032;-76
2023/03/01 11:35:09;;;;;;;15.38;9.95;;;6.10;49.50;;;;;;4999555;28;20022;-76
2023/03/01 11:37:49;;;;;;;14.13;9.52;;;6.20;49.60;;;;;;4987335;28;20335;-77
2023/03/01 11:40:28;;;;;;;16.02;10.68;;;6.20;49.70;;;;;;4988945;28;20038;-77
2023/03/01 11:43:15;;;;;;;14.80;10.32;;;6.40;50.30;;;;;;4990259;28;20400;-76
2023/03/01 11:46:19;;;;;;;15.63;10.25;;;6.30;49.40;;;;;;4988670;28;20474;-77
2023/03/01 11:48:50;;;;;;;13.68;10.00;;;6.10;50.10;;;;;;5010517;28;20044;-77
2023/03/01 11:51:25;;;;;;;15.93;10.55;;;6.10;49.10;;;;;;4988793;28;20049;-77
2023/03/01 11:54:05;;;;;;;15.18;10.48;;;6.30;50.40;;;;;;4993450;28;20033;-77
2023/03/01 11:56:49;;;;;;;17.85;10.13;;;6.40;49.60;;;;;;4988750;28;20042;-77
2023/03/01 11:59:30;;;;;;;14.98;10.20;;;6.60;50.10;;;;;;5003230;28;20482;-76
2023/03/01 12:01:55;;;;;;;14.70;10.45;;;6.80;48.90;;;;;;4987406;28;20165;-75
2023/03/01 12:05:14;;;;;;;13.73;9.23;;;6.80;48.90;;;;;;4990091;28;20392;-80
2023/03/01 12:07:55;;;;;;;13.57;8.88;;;6.80;48.90;;;;;;4999812;28;20045;-75
2023/03/01 12:10:30;;;;;;;13.05;8.77;;;6.70;47.60;;;;;;4990709;28;20124;-75
2023/03/01 12:13:06;;;;;;;13.23;7.95;;;6.80;47.30;;;;;;4987535;28;20030;-76
2023/03/01 12:15:52;;;;;;;14.20;8.70;;;6.80;46.40;;;;;;4990179;28;20054;-76
2023/03/01 12:18:51;;;;;;;12.75;8.95;;;6.80;46.50;;;;;;4988390;28;20038;-75
2023/03/01 12:21:41;;;;;;;14.05;8.80;;;6.70;46.40;;;;;;4990688;28;20153;-75
2023/03/01 12:24:52;;;;;;;12.95;8.07;;;6.60;47.40;;;;;;4994303;28;20026;-75
2023/03/01 12:27:38;;;;;;;15.48;9.13;;;6.90;47.00;;;;;;4991419;28;20100;-76
2023/03/01 12:30:22;;;;;;;15.65;9.80;;;7.30;46.50;;;;;;5011825;28;20037;-76
2023/03/01 12:33:28;;;;;;;11.90;8.65;;;7.20;47.00;;;;;;4994671;28;20045;-76
2023/03/01 12:36:20;;;;;;;13.32;9.02;;;6.90;46.80;;;;;;5004923;28;20030;-76
2023/03/01 12:38:50;;;;;;;13.98;9.02;;;7.00;47.50;;;;;;5001555;28;20481;-76
2023/03/01 12:41:53;;;;;;;13.45;9.98;;;7.20;48.20;;;;;;4991984;28;20042;-76
2023/03/01 12:44:48;;;;;;;14.50;10.07;;;7.50;49.20;;;;;;4999111;28;20622;-77
2023/03/01 12:47:39;;;;;;;14.00;9.37;;;7.50;49.90;;;;;;4999329;28;20039;-75